sensor_id;sensor_type;location;lat;lon;timestamp;P1;durP1;ratioP1;P2;durP2;ratioP2
78844;SDS011;68195;50.854;2.860;2023-02-28T00:01:21;5.50;;;3.88;;
78844;SDS011;68195;50.854;2.860;2023-02-28T00:03:47;5.57;;;3.72;;
78844;SDS011;68195;50.854;2.860;2023-02-28T00:06:15;4.72;;;3.78;;
78844;SDS011;68195;50.854;2.860;2023-02-28T00:08:48;6.03;;;3.83;;
78844;SDS011;68195;50.854;2.860;2023-02-28T00:11:14;7.88;;;4.50;;
78844;SDS011;68195;50.854;2.860;2023-02-28T00:13:41;7.65;;;4.32;;
78844;SDS011;68195;50.854;2.860;2023-02-28T00:16:11;6.57;;;4.57;;
78844;SDS011;68195;50.854;2.860;2023-02-28T00:18:39;8.38;;;4.22;;
78844;SDS011;68195;50.854;2.860;2023-02-28T00:21:08;7.30;;;4.53;;
78844;SDS011;68195;50.854;2.860;2023-02-28T00:23:40;7.55;;;4.53;;
78844;SDS011;68195;50.854;2.860;2023-02-28T00:26:08;7.15;;;4.60;;
78844;SDS011;68195;50.854;2.860;2023-02-28T00:28:33;5.88;;;4.22;;
78844;SDS011;68195;50.854;2.860;2023-02-28T00:31:01;5.10;;;3.90;;
78844;SDS011;68195;50.854;2.860;2023-02-28T00:33:29;6.03;;;4.45;;
78844;SDS011;68195;50.854;2.860;2023-02-28T00:36:05;8.43;;;4.50;;
78844;SDS011;68195;50.854;2.860;2023-02-28T00:38:36;6.07;;;4.22;;
78844;SDS011;68195;50.854;2.860;2023-02-28T00:41:04;7.72;;;4.72;;
78844;SDS011;68195;50.854;2.860;2023-02-28T00:43:32;6.22;;;4.82;;
78844;SDS011;68195;50.854;2.860;2023-02-28T00:46:01;6.53;;;4.60;;
78844;SDS011;68195;50.854;2.860;2023-02-28T00:50:55;7.05;;;4.65;;
78844;SDS011;68195;50.854;2.860;2023-02-28T00:53:23;7.38;;;4.75;;
78844;SDS011;68195;50.854;2.860;2023-02-28T00:55:49;5.55;;;4.93;;
78844;SDS011;68195;50.854;2.860;2023-02-28T00:58:18;6.10;;;4.28;;
78844;SDS011;68195;50.854;2.860;2023-02-28T01:00:47;5.53;;;4.50;;
78844;SDS011;68195;50.854;2.860;2023-02-28T01:03:16;7.75;;;4.68;;
78844;SDS011;68195;50.854;2.860;2023-02-28T01:05:43;7.03;;;4.72;;
78844;SDS011;68195;50.854;2.860;2023-02-28T01:08:11;6.45;;;4.88;;
78844;SDS011;68195;50.854;2.860;2023-02-28T01:10:37;5.95;;;4.45;;
78844;SDS011;68195;50.854;2.860;2023-02-28T01:13:03;5.82;;;4.60;;
78844;SDS011;68195;50.854;2.860;2023-02-28T01:15:29;6.60;;;5.05;;
78844;SDS011;68195;50.854;2.860;2023-02-28T01:17:54;6.07;;;4.70;;
78844;SDS011;68195;50.854;2.860;2023-02-28T01:20:19;8.57;;;5.40;;
78844;SDS011;68195;50.854;2.860;2023-02-28T01:22:45;6.30;;;4.68;;
78844;SDS011;68195;50.854;2.860;2023-02-28T01:25:15;7.75;;;5.25;;
78844;SDS011;68195;50.854;2.860;2023-02-28T01:27:43;7.32;;;5.65;;
78844;SDS011;68195;50.854;2.860;2023-02-28T01:30:09;7.40;;;5.30;;
78844;SDS011;68195;50.854;2.860;2023-02-28T01:32:36;8.05;;;5.00;;
78844;SDS011;68195;50.854;2.860;2023-02-28T01:35:06;6.20;;;5.03;;
78844;SDS011;68195;50.854;2.860;2023-02-28T01:37:37;7.88;;;5.55;;
78844;SDS011;68195;50.854;2.860;2023-02-28T01:40:05;10.55;;;5.80;;
78844;SDS011;68195;50.854;2.860;2023-02-28T01:42:31;8.10;;;4.72;;
78844;SDS011;68195;50.854;2.860;2023-02-28T01:47:25;7.32;;;4.88;;
78844;SDS011;68195;50.854;2.860;2023-02-28T01:49:57;7.30;;;4.55;;
78844;SDS011;68195;50.854;2.860;2023-02-28T01:52:25;9.63;;;4.53;;
78844;SDS011;68195;50.854;2.860;2023-02-28T01:54:54;8.98;;;5.00;;
78844;SDS011;68195;50.854;2.860;2023-02-28T01:57:26;7.25;;;4.80;;
78844;SDS011;68195;50.854;2.860;2023-02-28T02:00:04;6.88;;;4.80;;
78844;SDS011;68195;50.854;2.860;2023-02-28T02:02:34;8.32;;;4.63;;
78844;SDS011;68195;50.854;2.860;2023-02-28T02:05:06;5.60;;;4.50;;
78844;SDS011;68195;50.854;2.860;2023-02-28T02:07:40;6.38;;;4.32;;
78844;SDS011;68195;50.854;2.860;2023-02-28T02:10:17;7.05;;;4.45;;
78844;SDS011;68195;50.854;2.860;2023-02-28T02:16:04;8.23;;;4.75;;
78844;SDS011;68195;50.854;2.860;2023-02-28T02:18:48;7.47;;;4.18;;
78844;SDS011;68195;50.854;2.860;2023-02-28T02:35:59;7.00;;;4.80;;
78844;SDS011;68195;50.854;2.860;2023-02-28T02:46:22;6.90;;;4.22;;
78844;SDS011;68195;50.854;2.860;2023-02-28T02:48:54;6.88;;;4.95;;
78844;SDS011;68195;50.854;2.860;2023-02-28T02:51:22;7.18;;;5.18;;
78844;SDS011;68195;50.854;2.860;2023-02-28T02:53:55;7.53;;;5.13;;
78844;SDS011;68195;50.854;2.860;2023-02-28T02:56:36;6.55;;;4.72;;
78844;SDS011;68195;50.854;2.860;2023-02-28T02:59:06;8.05;;;5.28;;
78844;SDS011;68195;50.854;2.860;2023-02-28T03:01:37;10.18;;;5.40;;
78844;SDS011;68195;50.854;2.860;2023-02-28T03:04:06;7.38;;;4.88;;
78844;SDS011;68195;50.854;2.860;2023-02-28T03:06:36;6.82;;;5.30;;
78844;SDS011;68195;50.854;2.860;2023-02-28T03:09:04;7.72;;;5.30;;
78844;SDS011;68195;50.854;2.860;2023-02-28T03:11:32;10.25;;;5.00;;
78844;SDS011;68195;50.854;2.860;2023-02-28T03:17:05;6.97;;;5.05;;
78844;SDS011;68195;50.854;2.860;2023-02-28T03:33:30;8.13;;;5.30;;
78844;SDS011;68195;50.854;2.860;2023-02-28T03:36:20;8.70;;;6.10;;
78844;SDS011;68195;50.854;2.860;2023-02-28T03:41:43;7.40;;;5.28;;
78844;SDS011;68195;50.854;2.860;2023-02-28T03:44:15;11.57;;;6.30;;
78844;SDS011;68195;50.854;2.860;2023-02-28T03:46:48;10.25;;;6.13;;
78844;SDS011;68195;50.854;2.860;2023-02-28T03:49:28;8.40;;;6.55;;
78844;SDS011;68195;50.854;2.860;2023-02-28T03:52:02;9.02;;;6.22;;
78844;SDS011;68195;50.854;2.860;2023-02-28T03:54:32;7.93;;;6.07;;
78844;SDS011;68195;50.854;2.860;2023-02-28T03:57:04;8.90;;;6.40;;
78844;SDS011;68195;50.854;2.860;2023-02-28T03:59:42;11.23;;;6.18;;
78844;SDS011;68195;50.854;2.860;2023-02-28T04:02:12;10.75;;;6.15;;
78844;SDS011;68195;50.854;2.860;2023-02-28T04:04:39;7.57;;;6.32;;
78844;SDS011;68195;50.854;2.860;2023-02-28T04:07:13;8.70;;;6.50;;
78844;SDS011;68195;50.854;2.860;2023-02-28T04:09:39;9.88;;;6.50;;
78844;SDS011;68195;50.854;2.860;2023-02-28T04:12:10;11.13;;;7.25;;
78844;SDS011;68195;50.854;2.860;2023-02-28T04:14:37;11.82;;;7.03;;
78844;SDS011;68195;50.854;2.860;2023-02-28T04:17:05;11.15;;;7.22;;
78844;SDS011;68195;50.854;2.860;2023-02-28T04:19:31;11.93;;;7.57;;
78844;SDS011;68195;50.854;2.860;2023-02-28T04:22:01;10.10;;;7.43;;
78844;SDS011;68195;50.854;2.860;2023-02-28T04:24:27;11.07;;;7.65;;
78844;SDS011;68195;50.854;2.860;2023-02-28T04:26:56;11.82;;;7.20;;
78844;SDS011;68195;50.854;2.860;2023-02-28T04:29:28;12.48;;;7.75;;
78844;SDS011;68195;50.854;2.860;2023-02-28T04:31:55;12.25;;;7.25;;
78844;SDS011;68195;50.854;2.860;2023-02-28T04:34:24;12.07;;;7.47;;
78844;SDS011;68195;50.854;2.860;2023-02-28T04:36:54;10.63;;;7.47;;
78844;SDS011;68195;50.854;2.860;2023-02-28T04:41:45;11.27;;;6.50;;
78844;SDS011;68195;50.854;2.860;2023-02-28T04:44:13;11.00;;;6.65;;
78844;SDS011;68195;50.854;2.860;2023-02-28T04:46:44;10.25;;;7.45;;
78844;SDS011;68195;50.854;2.860;2023-02-28T04:49:12;10.65;;;7.60;;
78844;SDS011;68195;50.854;2.860;2023-02-28T04:51:38;9.95;;;8.13;;
78844;SDS011;68195;50.854;2.860;2023-02-28T04:54:06;12.23;;;8.20;;
78844;SDS011;68195;50.854;2.860;2023-02-28T04:56:35;12.85;;;7.82;;
78844;SDS011;68195;50.854;2.860;2023-02-28T04:59:05;13.77;;;7.93;;
78844;SDS011;68195;50.854;2.860;2023-02-28T05:01:33;11.48;;;7.78;;
78844;SDS011;68195;50.854;2.860;2023-02-28T05:04:01;12.00;;;8.35;;
78844;SDS011;68195;50.854;2.860;2023-02-28T05:06:31;11.05;;;7.57;;
78844;SDS011;68195;50.854;2.860;2023-02-28T05:08:58;12.27;;;8.32;;
78844;SDS011;68195;50.854;2.860;2023-02-28T05:11:31;12.10;;;8.13;;
78844;SDS011;68195;50.854;2.860;2023-02-28T05:14:02;11.93;;;8.73;;
78844;SDS011;68195;50.854;2.860;2023-02-28T05:16:32;9.48;;;7.68;;
78844;SDS011;68195;50.854;2.860;2023-02-28T05:18:58;12.65;;;8.13;;
78844;SDS011;68195;50.854;2.860;2023-02-28T05:21:34;10.07;;;8.05;;
78844;SDS011;68195;50.854;2.860;2023-02-28T05:24:02;11.50;;;8.20;;
78844;SDS011;68195;50.854;2.860;2023-02-28T05:29:08;12.02;;;8.30;;
78844;SDS011;68195;50.854;2.860;2023-02-28T05:31:35;11.25;;;8.25;;
78844;SDS011;68195;50.854;2.860;2023-02-28T05:36:31;9.30;;;7.18;;
78844;SDS011;68195;50.854;2.860;2023-02-28T05:39:04;11.55;;;7.43;;
78844;SDS011;68195;50.854;2.860;2023-02-28T05:41:37;12.40;;;7.45;;
78844;SDS011;68195;50.854;2.860;2023-02-28T05:44:08;10.45;;;7.65;;
78844;SDS011;68195;50.854;2.860;2023-02-28T05:46:34;11.85;;;7.25;;
78844;SDS011;68195;50.854;2.860;2023-02-28T05:49:00;13.82;;;7.65;;
78844;SDS011;68195;50.854;2.860;2023-02-28T05:51:28;11.88;;;7.85;;
78844;SDS011;68195;50.854;2.860;2023-02-28T05:56:27;11.45;;;7.47;;
78844;SDS011;68195;50.854;2.860;2023-02-28T05:58:55;15.35;;;7.53;;
78844;SDS011;68195;50.854;2.860;2023-02-28T06:03:58;13.00;;;8.02;;
78844;SDS011;68195;50.854;2.860;2023-02-28T06:06:25;11.10;;;7.55;;
78844;SDS011;68195;50.854;2.860;2023-02-28T06:08:50;11.32;;;8.00;;
78844;SDS011;68195;50.854;2.860;2023-02-28T06:11:15;12.60;;;7.88;;
78844;SDS011;68195;50.854;2.860;2023-02-28T06:13:44;11.02;;;7.65;;
78844;SDS011;68195;50.854;2.860;2023-02-28T06:16:12;12.52;;;8.77;;
78844;SDS011;68195;50.854;2.860;2023-02-28T06:18:38;13.13;;;8.13;;
78844;SDS011;68195;50.854;2.860;2023-02-28T06:21:03;12.00;;;8.18;;
78844;SDS011;68195;50.854;2.860;2023-02-28T06:23:29;13.10;;;7.68;;
78844;SDS011;68195;50.854;2.860;2023-02-28T06:25:55;9.55;;;7.72;;
78844;SDS011;68195;50.854;2.860;2023-02-28T06:28:25;11.02;;;7.28;;
78844;SDS011;68195;50.854;2.860;2023-02-28T06:30:55;9.38;;;7.35;;
78844;SDS011;68195;50.854;2.860;2023-02-28T06:33:21;13.27;;;8.70;;
78844;SDS011;68195;50.854;2.860;2023-02-28T06:35:54;11.25;;;8.68;;
78844;SDS011;68195;50.854;2.860;2023-02-28T06:38:20;12.55;;;9.00;;
78844;SDS011;68195;50.854;2.860;2023-02-28T06:40:52;13.27;;;8.00;;
78844;SDS011;68195;50.854;2.860;2023-02-28T06:43:18;10.98;;;8.45;;
78844;SDS011;68195;50.854;2.860;2023-02-28T06:45:44;11.70;;;8.02;;
78844;SDS011;68195;50.854;2.860;2023-02-28T06:48:09;10.38;;;7.05;;
78844;SDS011;68195;50.854;2.860;2023-02-28T06:50:40;10.85;;;7.22;;
78844;SDS011;68195;50.854;2.860;2023-02-28T06:53:05;7.50;;;6.60;;
78844;SDS011;68195;50.854;2.860;2023-02-28T06:55:31;11.35;;;7.88;;
78844;SDS011;68195;50.854;2.860;2023-02-28T06:58:01;13.38;;;10.07;;
78844;SDS011;68195;50.854;2.860;2023-02-28T07:00:27;10.75;;;8.65;;
78844;SDS011;68195;50.854;2.860;2023-02-28T07:02:52;11.63;;;8.02;;
78844;SDS011;68195;50.854;2.860;2023-02-28T07:05:20;9.60;;;6.75;;
78844;SDS011;68195;50.854;2.860;2023-02-28T07:07:47;8.88;;;6.78;;
78844;SDS011;68195;50.854;2.860;2023-02-28T07:10:13;8.95;;;6.57;;
78844;SDS011;68195;50.854;2.860;2023-02-28T07:12:44;12.32;;;7.78;;
78844;SDS011;68195;50.854;2.860;2023-02-28T07:15:12;19.17;;;13.15;;
78844;SDS011;68195;50.854;2.860;2023-02-28T07:17:37;8.95;;;6.65;;
78844;SDS011;68195;50.854;2.860;2023-02-28T07:20:05;9.30;;;5.40;;
78844;SDS011;68195;50.854;2.860;2023-02-28T07:22:31;8.20;;;5.38;;
78844;SDS011;68195;50.854;2.860;2023-02-28T07:24:58;10.63;;;5.72;;
78844;SDS011;68195;50.854;2.860;2023-02-28T07:27:24;9.27;;;5.28;;
78844;SDS011;68195;50.854;2.860;2023-02-28T07:29:52;9.82;;;5.45;;
78844;SDS011;68195;50.854;2.860;2023-02-28T07:32:19;8.95;;;4.78;;
78844;SDS011;68195;50.854;2.860;2023-02-28T07:34:45;10.82;;;5.28;;
78844;SDS011;68195;50.854;2.860;2023-02-28T07:37:10;7.35;;;5.25;;
78844;SDS011;68195;50.854;2.860;2023-02-28T07:39:39;7.70;;;5.15;;
78844;SDS011;68195;50.854;2.860;2023-02-28T07:42:06;7.85;;;4.82;;
78844;SDS011;68195;50.854;2.860;2023-02-28T07:44:38;7.18;;;4.63;;
78844;SDS011;68195;50.854;2.860;2023-02-28T07:47:08;5.65;;;3.75;;
78844;SDS011;68195;50.854;2.860;2023-02-28T07:49:37;7.57;;;4.05;;
78844;SDS011;68195;50.854;2.860;2023-02-28T07:52:03;7.05;;;3.20;;
78844;SDS011;68195;50.854;2.860;2023-02-28T07:54:30;6.13;;;3.95;;
78844;SDS011;68195;50.854;2.860;2023-02-28T07:56:55;7.10;;;4.47;;
78844;SDS011;68195;50.854;2.860;2023-02-28T07:59:24;5.85;;;3.80;;
78844;SDS011;68195;50.854;2.860;2023-02-28T08:01:52;5.20;;;3.80;;
78844;SDS011;68195;50.854;2.860;2023-02-28T08:04:18;6.70;;;3.92;;
78844;SDS011;68195;50.854;2.860;2023-02-28T08:06:43;6.90;;;3.83;;
78844;SDS011;68195;50.854;2.860;2023-02-28T08:09:09;5.28;;;3.17;;
78844;SDS011;68195;50.854;2.860;2023-02-28T08:11:39;6.30;;;3.92;;
78844;SDS011;68195;50.854;2.860;2023-02-28T08:14:05;5.95;;;3.53;;
78844;SDS011;68195;50.854;2.860;2023-02-28T08:16:30;6.00;;;4.15;;
78844;SDS011;68195;50.854;2.860;2023-02-28T08:18:56;6.40;;;3.70;;
78844;SDS011;68195;50.854;2.860;2023-02-28T08:21:24;6.55;;;3.67;;
78844;SDS011;68195;50.854;2.860;2023-02-28T08:23:50;7.57;;;3.85;;
78844;SDS011;68195;50.854;2.860;2023-02-28T08:28:42;7.28;;;3.05;;
78844;SDS011;68195;50.854;2.860;2023-02-28T08:31:11;5.57;;;3.35;;
78844;SDS011;68195;50.854;2.860;2023-02-28T08:33:38;5.80;;;3.15;;
78844;SDS011;68195;50.854;2.860;2023-02-28T08:36:07;6.68;;;4.00;;
78844;SDS011;68195;50.854;2.860;2023-02-28T08:38:36;8.80;;;4.07;;
78844;SDS011;68195;50.854;2.860;2023-02-28T08:41:05;6.00;;;3.75;;
78844;SDS011;68195;50.854;2.860;2023-02-28T08:43:33;5.85;;;3.50;;
78844;SDS011;68195;50.854;2.860;2023-02-28T08:46:01;5.70;;;4.35;;
78844;SDS011;68195;50.854;2.860;2023-02-28T08:51:01;6.88;;;3.72;;
78844;SDS011;68195;50.854;2.860;2023-02-28T08:53:34;7.88;;;4.30;;
78844;SDS011;68195;50.854;2.860;2023-02-28T08:58:34;7.72;;;5.10;;
78844;SDS011;68195;50.854;2.860;2023-02-28T09:01:00;9.05;;;5.05;;
78844;SDS011;68195;50.854;2.860;2023-02-28T09:03:32;6.72;;;4.60;;
78844;SDS011;68195;50.854;2.860;2023-02-28T09:06:00;7.35;;;4.60;;
78844;SDS011;68195;50.854;2.860;2023-02-28T09:08:27;8.38;;;5.10;;
78844;SDS011;68195;50.854;2.860;2023-02-28T09:10:53;7.10;;;4.25;;
78844;SDS011;68195;50.854;2.860;2023-02-28T09:13:21;5.57;;;4.28;;
78844;SDS011;68195;50.854;2.860;2023-02-28T09:15:52;8.07;;;3.97;;
78844;SDS011;68195;50.854;2.860;2023-02-28T09:18:17;5.57;;;3.80;;
78844;SDS011;68195;50.854;2.860;2023-02-28T09:20:43;5.32;;;3.72;;
78844;SDS011;68195;50.854;2.860;2023-02-28T09:23:09;4.68;;;3.00;;
78844;SDS011;68195;50.854;2.860;2023-02-28T09:25:44;5.38;;;2.80;;
78844;SDS011;68195;50.854;2.860;2023-02-28T09:28:14;4.22;;;2.42;;
78844;SDS011;68195;50.854;2.860;2023-02-28T09:30:44;5.78;;;3.15;;
78844;SDS011;68195;50.854;2.860;2023-02-28T09:33:11;6.25;;;3.17;;
78844;SDS011;68195;50.854;2.860;2023-02-28T09:35:44;4.43;;;2.80;;
78844;SDS011;68195;50.854;2.860;2023-02-28T09:38:12;4.00;;;2.92;;
78844;SDS011;68195;50.854;2.860;2023-02-28T09:40:50;4.00;;;2.70;;
78844;SDS011;68195;50.854;2.860;2023-02-28T09:43:22;4.53;;;2.63;;
78844;SDS011;68195;50.854;2.860;2023-02-28T09:46:00;5.28;;;2.88;;
78844;SDS011;68195;50.854;2.860;2023-02-28T09:48:34;5.63;;;3.45;;
78844;SDS011;68195;50.854;2.860;2023-02-28T09:51:09;7.40;;;3.40;;
78844;SDS011;68195;50.854;2.860;2023-02-28T09:53:55;5.57;;;4.00;;
78844;SDS011;68195;50.854;2.860;2023-02-28T10:02:00;6.03;;;2.50;;
78844;SDS011;68195;50.854;2.860;2023-02-28T10:05:26;5.95;;;2.88;;
78844;SDS011;68195;50.854;2.860;2023-02-28T10:08:13;5.90;;;2.45;;
78844;SDS011;68195;50.854;2.860;2023-02-28T10:10:46;3.72;;;2.25;;
78844;SDS011;68195;50.854;2.860;2023-02-28T10:16:05;4.65;;;2.78;;
78844;SDS011;68195;50.854;2.860;2023-02-28T10:18:39;4.72;;;2.55;;
78844;SDS011;68195;50.854;2.860;2023-02-28T10:21:17;8.40;;;2.85;;
78844;SDS011;68195;50.854;2.860;2023-02-28T10:23:49;4.55;;;2.92;;
78844;SDS011;68195;50.854;2.860;2023-02-28T10:26:24;4.78;;;2.83;;
78844;SDS011;68195;50.854;2.860;2023-02-28T10:28:55;5.70;;;2.70;;
78844;SDS011;68195;50.854;2.860;2023-02-28T10:31:20;5.20;;;2.95;;
78844;SDS011;68195;50.854;2.860;2023-02-28T10:33:48;6.28;;;3.03;;
78844;SDS011;68195;50.854;2.860;2023-02-28T10:36:15;5.35;;;3.03;;
78844;SDS011;68195;50.854;2.860;2023-02-28T10:38:47;5.80;;;3.20;;
78844;SDS011;68195;50.854;2.860;2023-02-28T10:41:15;5.82;;;2.70;;
78844;SDS011;68195;50.854;2.860;2023-02-28T10:43:52;5.15;;;3.33;;
78844;SDS011;68195;50.854;2.860;2023-02-28T10:48:47;4.95;;;2.92;;
78844;SDS011;68195;50.854;2.860;2023-02-28T10:51:25;4.95;;;2.58;;
78844;SDS011;68195;50.854;2.860;2023-02-28T10:54:02;4.82;;;2.80;;
78844;SDS011;68195;50.854;2.860;2023-02-28T10:56:30;5.78;;;3.10;;
78844;SDS011;68195;50.854;2.860;2023-02-28T10:59:01;4.43;;;2.53;;
78844;SDS011;68195;50.854;2.860;2023-02-28T11:01:35;3.67;;;2.70;;
78844;SDS011;68195;50.854;2.860;2023-02-28T11:04:16;3.83;;;2.85;;
78844;SDS011;68195;50.854;2.860;2023-02-28T11:06:43;3.30;;;2.60;;
78844;SDS011;68195;50.854;2.860;2023-02-28T11:09:22;3.58;;;2.58;;
78844;SDS011;68195;50.854;2.860;2023-02-28T11:11:57;6.43;;;3.08;;
78844;SDS011;68195;50.854;2.860;2023-02-28T11:14:30;6.22;;;3.50;;
78844;SDS011;68195;50.854;2.860;2023-02-28T11:17:03;5.93;;;3.47;;
78844;SDS011;68195;50.854;2.860;2023-02-28T11:19:44;5.05;;;3.53;;
78844;SDS011;68195;50.854;2.860;2023-02-28T11:22:17;4.65;;;2.72;;
78844;SDS011;68195;50.854;2.860;2023-02-28T11:24:47;5.20;;;3.40;;
78844;SDS011;68195;50.854;2.860;2023-02-28T11:27:42;8.55;;;2.92;;
78844;SDS011;68195;50.854;2.860;2023-02-28T11:30:24;4.70;;;3.40;;
78844;SDS011;68195;50.854;2.860;2023-02-28T11:32:53;4.90;;;3.72;;
78844;SDS011;68195;50.854;2.860;2023-02-28T11:37:48;6.60;;;3.25;;
78844;SDS011;68195;50.854;2.860;2023-02-28T11:40:18;9.20;;;3.90;;
78844;SDS011;68195;50.854;2.860;2023-02-28T11:48:30;6.95;;;4.00;;
78844;SDS011;68195;50.854;2.860;2023-02-28T11:56:34;4.72;;;3.10;;
78844;SDS011;68195;50.854;2.860;2023-02-28T11:59:13;6.00;;;3.97;;
78844;SDS011;68195;50.854;2.860;2023-02-28T12:17:47;6.47;;;3.92;;
78844;SDS011;68195;50.854;2.860;2023-02-28T12:20:38;6.82;;;3.50;;
78844;SDS011;68195;50.854;2.860;2023-02-28T12:23:26;6.00;;;3.85;;
78844;SDS011;68195;50.854;2.860;2023-02-28T12:28:30;5.82;;;3.50;;
78844;SDS011;68195;50.854;2.860;2023-02-28T12:31:04;5.10;;;3.33;;
78844;SDS011;68195;50.854;2.860;2023-02-28T12:33:48;5.03;;;3.13;;
78844;SDS011;68195;50.854;2.860;2023-02-28T12:36:19;5.28;;;3.40;;
78844;SDS011;68195;50.854;2.860;2023-02-28T12:38:54;6.05;;;3.60;;
78844;SDS011;68195;50.854;2.860;2023-02-28T12:41:40;6.10;;;3.72;;
78844;SDS011;68195;50.854;2.860;2023-02-28T12:44:32;5.25;;;3.78;;
78844;SDS011;68195;50.854;2.860;2023-02-28T12:46:59;8.20;;;3.53;;
78844;SDS011;68195;50.854;2.860;2023-02-28T12:49:31;4.35;;;3.28;;
78844;SDS011;68195;50.854;2.860;2023-02-28T12:52:41;5.18;;;3.10;;
78844;SDS011;68195;50.854;2.860;2023-02-28T12:55:37;4.65;;;2.92;;
78844;SDS011;68195;50.854;2.860;2023-02-28T13:01:18;5.72;;;2.92;;
78844;SDS011;68195;50.854;2.860;2023-02-28T13:04:05;4.60;;;3.22;;
78844;SDS011;68195;50.854;2.860;2023-02-28T13:09:37;3.92;;;2.75;;
78844;SDS011;68195;50.854;2.860;2023-02-28T13:12:12;4.80;;;3.45;;
78844;SDS011;68195;50.854;2.860;2023-02-28T13:14:39;7.70;;;3.95;;
78844;SDS011;68195;50.854;2.860;2023-02-28T13:22:19;5.20;;;3.67;;
78844;SDS011;68195;50.854;2.860;2023-02-28T13:27:48;6.30;;;3.88;;
78844;SDS011;68195;50.854;2.860;2023-02-28T13:38:40;4.72;;;3.15;;
78844;SDS011;68195;50.854;2.860;2023-02-28T13:46:35;3.50;;;2.38;;
78844;SDS011;68195;50.854;2.860;2023-02-28T13:51:48;4.57;;;3.13;;
78844;SDS011;68195;50.854;2.860;2023-02-28T14:05:47;7.75;;;3.25;;
78844;SDS011;68195;50.854;2.860;2023-02-28T14:08:34;4.70;;;2.53;;
78844;SDS011;68195;50.854;2.860;2023-02-28T14:11:06;4.22;;;3.10;;
78844;SDS011;68195;50.854;2.860;2023-02-28T14:13:48;5.70;;;2.72;;
78844;SDS011;68195;50.854;2.860;2023-02-28T14:16:19;6.65;;;3.00;;
78844;SDS011;68195;50.854;2.860;2023-02-28T14:19:02;4.65;;;3.38;;
78844;SDS011;68195;50.854;2.860;2023-02-28T14:21:36;3.90;;;3.08;;
78844;SDS011;68195;50.854;2.860;2023-02-28T14:27:13;3.70;;;2.63;;
78844;SDS011;68195;50.854;2.860;2023-02-28T14:38:04;4.80;;;2.67;;
78844;SDS011;68195;50.854;2.860;2023-02-28T14:40:32;4.60;;;3.00;;
78844;SDS011;68195;50.854;2.860;2023-02-28T14:43:03;7.55;;;2.90;;
78844;SDS011;68195;50.854;2.860;2023-02-28T14:45:33;3.65;;;2.78;;
78844;SDS011;68195;50.854;2.860;2023-02-28T14:48:02;5.00;;;2.92;;
78844;SDS011;68195;50.854;2.860;2023-02-28T14:50:34;5.05;;;2.83;;
78844;SDS011;68195;50.854;2.860;2023-02-28T14:53:04;4.20;;;2.63;;
78844;SDS011;68195;50.854;2.860;2023-02-28T14:55:43;5.95;;;3.03;;
78844;SDS011;68195;50.854;2.860;2023-02-28T14:58:23;5.63;;;3.42;;
78844;SDS011;68195;50.854;2.860;2023-02-28T15:00:52;6.75;;;3.17;;
78844;SDS011;68195;50.854;2.860;2023-02-28T15:03:23;8.85;;;3.47;;
78844;SDS011;68195;50.854;2.860;2023-02-28T15:05:55;7.57;;;3.35;;
78844;SDS011;68195;50.854;2.860;2023-02-28T15:08:26;7.18;;;2.50;;
78844;SDS011;68195;50.854;2.860;2023-02-28T15:13:48;3.88;;;2.15;;
78844;SDS011;68195;50.854;2.860;2023-02-28T15:21:24;3.47;;;2.33;;
78844;SDS011;68195;50.854;2.860;2023-02-28T15:23:56;3.75;;;2.40;;
78844;SDS011;68195;50.854;2.860;2023-02-28T15:26:24;3.65;;;2.75;;
78844;SDS011;68195;50.854;2.860;2023-02-28T15:28:58;6.47;;;2.20;;
78844;SDS011;68195;50.854;2.860;2023-02-28T15:31:32;5.45;;;2.50;;
78844;SDS011;68195;50.854;2.860;2023-02-28T15:34:03;3.63;;;2.30;;
78844;SDS011;68195;50.854;2.860;2023-02-28T15:36:33;5.43;;;2.22;;
78844;SDS011;68195;50.854;2.860;2023-02-28T15:39:02;2.67;;;2.25;;
78844;SDS011;68195;50.854;2.860;2023-02-28T15:41:42;5.15;;;3.03;;
78844;SDS011;68195;50.854;2.860;2023-02-28T15:47:14;3.00;;;2.08;;
78844;SDS011;68195;50.854;2.860;2023-02-28T15:52:16;3.35;;;2.80;;
78844;SDS011;68195;50.854;2.860;2023-02-28T15:54:44;3.72;;;2.47;;
78844;SDS011;68195;50.854;2.860;2023-02-28T15:57:21;2.65;;;2.40;;
78844;SDS011;68195;50.854;2.860;2023-02-28T16:02:20;5.57;;;2.63;;
78844;SDS011;68195;50.854;2.860;2023-02-28T16:04:57;6.43;;;2.85;;
78844;SDS011;68195;50.854;2.860;2023-02-28T16:07:27;3.13;;;2.40;;
78844;SDS011;68195;50.854;2.860;2023-02-28T16:09:53;2.90;;;1.92;;
78844;SDS011;68195;50.854;2.860;2023-02-28T16:12:22;5.82;;;2.40;;
78844;SDS011;68195;50.854;2.860;2023-02-28T16:17:31;4.10;;;2.50;;
78844;SDS011;68195;50.854;2.860;2023-02-28T16:20:12;2.15;;;1.90;;
78844;SDS011;68195;50.854;2.860;2023-02-28T16:22:51;3.08;;;2.42;;
78844;SDS011;68195;50.854;2.860;2023-02-28T16:25:20;4.75;;;2.35;;
78844;SDS011;68195;50.854;2.860;2023-02-28T16:27:51;2.88;;;2.15;;
78844;SDS011;68195;50.854;2.860;2023-02-28T16:30:23;3.10;;;2.20;;
78844;SDS011;68195;50.854;2.860;2023-02-28T16:32:51;4.47;;;2.65;;
78844;SDS011;68195;50.854;2.860;2023-02-28T16:35:23;2.50;;;2.05;;
78844;SDS011;68195;50.854;2.860;2023-02-28T16:37:50;4.75;;;2.28;;
78844;SDS011;68195;50.854;2.860;2023-02-28T16:40:17;3.45;;;2.08;;
78844;SDS011;68195;50.854;2.860;2023-02-28T16:42:52;4.63;;;2.83;;
78844;SDS011;68195;50.854;2.860;2023-02-28T16:45:21;2.90;;;2.38;;
78844;SDS011;68195;50.854;2.860;2023-02-28T16:47:49;3.25;;;2.40;;
78844;SDS011;68195;50.854;2.860;2023-02-28T16:50:21;3.90;;;2.60;;
78844;SDS011;68195;50.854;2.860;2023-02-28T16:52:51;5.75;;;3.50;;
78844;SDS011;68195;50.854;2.860;2023-02-28T16:55:20;4.85;;;3.15;;
78844;SDS011;68195;50.854;2.860;2023-02-28T16:57:51;4.00;;;2.83;;
78844;SDS011;68195;50.854;2.860;2023-02-28T17:00:24;6.68;;;3.35;;
78844;SDS011;68195;50.854;2.860;2023-02-28T17:02:53;4.78;;;3.58;;
78844;SDS011;68195;50.854;2.860;2023-02-28T17:05:19;4.03;;;3.08;;
78844;SDS011;68195;50.854;2.860;2023-02-28T17:07:45;5.50;;;2.97;;
78844;SDS011;68195;50.854;2.860;2023-02-28T17:10:13;4.15;;;3.30;;
78844;SDS011;68195;50.854;2.860;2023-02-28T17:12:49;6.20;;;3.70;;
78844;SDS011;68195;50.854;2.860;2023-02-28T17:15:18;4.93;;;3.00;;
78844;SDS011;68195;50.854;2.860;2023-02-28T17:17:44;5.38;;;3.00;;
78844;SDS011;68195;50.854;2.860;2023-02-28T17:20:14;6.05;;;3.90;;
78844;SDS011;68195;50.854;2.860;2023-02-28T17:22:47;4.55;;;3.03;;
78844;SDS011;68195;50.854;2.860;2023-02-28T17:25:18;6.50;;;3.75;;
78844;SDS011;68195;50.854;2.860;2023-02-28T17:27:46;4.78;;;3.28;;
78844;SDS011;68195;50.854;2.860;2023-02-28T17:30:17;4.45;;;3.75;;
78844;SDS011;68195;50.854;2.860;2023-02-28T17:32:48;6.05;;;3.38;;
78844;SDS011;68195;50.854;2.860;2023-02-28T17:35:16;5.78;;;3.35;;
78844;SDS011;68195;50.854;2.860;2023-02-28T17:37:43;5.40;;;3.65;;
78844;SDS011;68195;50.854;2.860;2023-02-28T17:40:15;5.78;;;3.65;;
78844;SDS011;68195;50.854;2.860;2023-02-28T17:42:47;6.50;;;3.22;;
78844;SDS011;68195;50.854;2.860;2023-02-28T17:45:13;4.50;;;3.20;;
78844;SDS011;68195;50.854;2.860;2023-02-28T17:47:40;5.00;;;3.33;;
78844;SDS011;68195;50.854;2.860;2023-02-28T17:50:14;6.28;;;4.18;;
78844;SDS011;68195;50.854;2.860;2023-02-28T17:52:43;5.28;;;4.38;;
78844;SDS011;68195;50.854;2.860;2023-02-28T17:55:09;6.00;;;4.18;;
78844;SDS011;68195;50.854;2.860;2023-02-28T17:57:37;8.23;;;4.30;;
78844;SDS011;68195;50.854;2.860;2023-02-28T18:00:06;5.28;;;4.00;;
78844;SDS011;68195;50.854;2.860;2023-02-28T18:02:33;6.35;;;4.00;;
78844;SDS011;68195;50.854;2.860;2023-02-28T18:04:59;6.05;;;4.07;;
78844;SDS011;68195;50.854;2.860;2023-02-28T18:07:24;4.72;;;4.05;;
78844;SDS011;68195;50.854;2.860;2023-02-28T18:09:55;4.93;;;3.63;;
78844;SDS011;68195;50.854;2.860;2023-02-28T18:12:20;4.97;;;3.63;;